X  Close Metar Aviation Weather Data        KDWH George Bush Intercontinental Airport
Temperature
81°F Temperature
74°F Dewpoint
79% Humidity



Wind
5 MPH
7 KM/H
2 M/S
4 KTS



180°
S
Current Conditions

Mostly Cloudy Mostly Cloudy
Pressure 1012 (hPa) - 29.89 (inHg)
Visibility 10 (mile) - 16 (km)
Airport
Airport-code KDWH

Location: George Bush Intercontinental Airport
Distance: 18 (mi)

Metar:
SPECI KDWH 171609Z 18004KT 10SM SCT022 BKN028 BKN039 27/23 A2990 RMK AO2 LTG DSNT S RAE05 P0000 T02720233

Time: 05-17-2021 11:09 CDT